createdAt,value
2018-04-12T00:01:20.853Z,12.90
2018-04-12T00:03:49.203Z,12.80
2018-04-12T00:06:16.696Z,12.70
2018-04-12T00:08:45.042Z,12.90
2018-04-12T00:11:12.529Z,12.80
2018-04-12T00:13:40.976Z,12.60
2018-04-12T00:16:08.727Z,12.60
2018-04-12T00:18:37.051Z,12.40
2018-04-12T00:21:04.604Z,12.40
2018-04-12T00:23:33.072Z,12.40
2018-04-12T00:26:00.577Z,12.40
2018-04-12T00:28:28.059Z,12.20
2018-04-12T00:30:55.571Z,12.10
2018-04-12T00:33:23.050Z,12.00
2018-04-12T00:35:50.569Z,12.20
2018-04-12T00:38:18.897Z,11.90
2018-04-12T00:40:46.445Z,11.90
2018-04-12T00:43:13.936Z,12.00
2018-04-12T00:45:41.539Z,12.00
2018-04-12T00:48:09.083Z,11.80
2018-04-12T00:50:37.384Z,11.60
2018-04-12T00:53:04.946Z,11.60
2018-04-12T00:55:32.443Z,11.60
2018-04-12T00:57:59.961Z,11.60
2018-04-12T01:00:27.446Z,11.50
2018-04-12T01:02:54.932Z,11.50
2018-04-12T01:05:22.490Z,11.40
2018-04-12T01:07:50.737Z,11.40
2018-04-12T01:10:18.262Z,11.40
2018-04-12T01:12:45.754Z,11.20
2018-04-12T01:15:13.257Z,11.10
2018-04-12T01:17:40.850Z,11.10
2018-04-12T01:20:08.343Z,11.10
2018-04-12T01:22:35.932Z,11.00
2018-04-12T01:25:03.458Z,11.00
2018-04-12T01:27:31.271Z,10.90
2018-04-12T01:29:58.765Z,10.80
2018-04-12T01:32:26.251Z,10.80
2018-04-12T01:34:54.520Z,11.00
2018-04-12T01:37:22.003Z,10.90
2018-04-12T01:39:49.516Z,10.80
2018-04-12T01:42:17.011Z,10.70
2018-04-12T01:44:45.340Z,10.50
2018-04-12T01:47:12.829Z,10.50
2018-04-12T01:49:40.329Z,10.50
2018-04-12T01:52:07.857Z,10.50
2018-04-12T01:54:36.110Z,10.60
2018-04-12T01:57:03.772Z,10.60
2018-04-12T01:59:31.261Z,10.50
2018-04-12T02:01:58.769Z,10.40
2018-04-12T02:04:26.275Z,10.30
2018-04-12T02:06:53.793Z,10.40
2018-04-12T02:09:21.292Z,10.30
2018-04-12T02:11:48.874Z,10.30
2018-04-12T02:14:16.374Z,10.30
2018-04-12T02:16:43.860Z,10.30
2018-04-12T02:19:11.388Z,10.10
2018-04-12T02:21:38.916Z,10.20
2018-04-12T02:24:06.454Z,10.10
2018-04-12T02:26:33.929Z,10.00
2018-04-12T02:29:01.455Z,10.00
2018-04-12T02:31:28.947Z,10.10
2018-04-12T02:33:56.456Z,10.10
2018-04-12T02:36:24.731Z,10.20
2018-04-12T02:38:53.013Z,10.20
2018-04-12T02:41:21.291Z,10.20
2018-04-12T02:43:48.818Z,10.20
2018-04-12T02:46:16.319Z,10.20
2018-04-12T02:48:43.858Z,10.20
2018-04-12T02:51:12.111Z,10.10
2018-04-12T02:53:39.630Z,10.10
2018-04-12T02:56:07.203Z,10.20
2018-04-12T02:58:34.707Z,10.30
2018-04-12T03:01:03.007Z,10.40
2018-04-12T03:03:30.574Z,10.40
2018-04-12T03:05:58.790Z,10.40
2018-04-12T03:08:26.301Z,10.40
2018-04-12T03:10:53.797Z,10.40
2018-04-12T03:13:21.311Z,10.40
2018-04-12T03:15:48.936Z,10.50
2018-04-12T03:18:16.461Z,10.40
2018-04-12T03:20:43.951Z,10.30
2018-04-12T03:23:11.514Z,10.50
2018-04-12T03:25:39.066Z,10.50
2018-04-12T03:28:06.579Z,10.40
2018-04-12T03:30:34.076Z,10.60
2018-04-12T03:33:02.368Z,10.50
2018-04-12T03:35:30.659Z,10.40
2018-04-12T03:37:58.313Z,10.40
2018-04-12T03:40:25.860Z,10.50
2018-04-12T03:42:54.146Z,10.50
2018-04-12T03:45:21.684Z,10.50
2018-04-12T03:47:49.167Z,10.40
2018-04-12T03:50:16.717Z,10.40
2018-04-12T03:52:44.263Z,10.20
2018-04-12T03:55:11.819Z,10.30
2018-04-12T03:57:39.386Z,10.30
2018-04-12T04:00:07.649Z,10.20
2018-04-12T04:02:35.138Z,10.20
2018-04-12T04:05:02.721Z,10.30
2018-04-12T04:07:30.334Z,10.30
2018-04-12T04:09:57.834Z,10.20
2018-04-12T04:12:25.375Z,10.30
2018-04-12T04:18:20.049Z,10.10
2018-04-12T04:21:12.276Z,10.10
2018-04-12T04:23:39.820Z,10.10
2018-04-12T04:26:07.304Z,10.10
2018-04-12T04:28:34.820Z,10.10
2018-04-12T04:31:02.311Z,10.20
2018-04-12T04:33:29.801Z,10.20
2018-04-12T04:35:57.387Z,10.20
2018-04-12T04:38:24.869Z,10.10
2018-04-12T04:40:52.506Z,10.10
2018-04-12T04:43:20.028Z,10.00
2018-04-12T04:45:47.508Z,10.00
2018-04-12T04:48:15.163Z,9.90
2018-04-12T04:50:42.627Z,9.90
2018-04-12T04:53:10.120Z,10.00
2018-04-12T04:55:37.634Z,10.00
2018-04-12T04:58:05.150Z,10.10
2018-04-12T05:00:32.663Z,10.00
2018-04-12T05:03:00.149Z,10.20
2018-04-12T05:05:27.665Z,10.00
2018-04-12T05:07:55.155Z,10.10
2018-04-12T05:10:22.642Z,10.10
2018-04-12T05:12:50.175Z,10.10
2018-04-12T05:15:17.679Z,10.00
2018-04-12T05:17:45.952Z,10.00
2018-04-12T05:20:14.227Z,10.30
2018-04-12T05:22:41.754Z,10.30
2018-04-12T05:25:09.238Z,10.40
2018-04-12T05:27:37.540Z,10.40
2018-04-12T05:30:05.077Z,10.40
2018-04-12T05:32:33.325Z,10.30
2018-04-12T05:35:00.871Z,10.30
2018-04-12T05:37:28.380Z,10.30
2018-04-12T05:39:55.902Z,10.40
2018-04-12T05:42:23.426Z,10.40
2018-04-12T05:44:50.902Z,10.50
2018-04-12T05:47:18.381Z,10.50
2018-04-12T05:49:45.888Z,10.60
2018-04-12T05:52:13.385Z,10.50
2018-04-12T05:54:40.889Z,10.50
2018-04-12T05:57:08.370Z,10.60
2018-04-12T05:59:35.888Z,10.60
2018-04-12T06:02:04.167Z,10.70
2018-04-12T06:04:32.417Z,10.80
2018-04-12T06:06:59.888Z,10.80
2018-04-12T06:09:28.264Z,10.90
2018-04-12T06:11:56.535Z,10.90
2018-04-12T06:14:24.824Z,11.00
2018-04-12T06:16:52.345Z,11.00
2018-04-12T06:19:20.106Z,11.10
2018-04-12T06:21:47.605Z,11.10
2018-04-12T06:24:15.915Z,11.30
2018-04-12T06:26:43.391Z,11.30
2018-04-12T06:29:10.880Z,11.30
2018-04-12T06:31:39.211Z,11.40
2018-04-12T06:34:06.707Z,11.40
2018-04-12T06:36:34.231Z,11.40
2018-04-12T06:39:01.818Z,11.50
2018-04-12T06:41:29.334Z,11.60
2018-04-12T06:43:56.913Z,11.70
2018-04-12T06:46:24.441Z,11.70
2018-04-12T06:48:51.943Z,11.80
2018-04-12T06:51:19.456Z,11.90
2018-04-12T06:53:46.951Z,12.10
2018-04-12T06:56:14.477Z,12.20
2018-04-12T06:58:42.011Z,12.20
2018-04-12T07:01:09.563Z,12.20
2018-04-12T07:03:37.823Z,12.40
2018-04-12T07:06:06.110Z,12.50
2018-04-12T07:08:33.637Z,12.40
2018-04-12T07:11:01.171Z,12.60
2018-04-12T07:13:28.700Z,12.70
2018-04-12T07:15:56.188Z,12.90
2018-04-12T07:18:23.718Z,13.10
2018-04-12T07:20:51.256Z,13.50
2018-04-12T07:23:19.588Z,13.80
2018-04-12T07:25:47.112Z,13.80
2018-04-12T07:28:14.596Z,14.00
2018-04-12T07:30:42.150Z,14.20
2018-04-12T07:33:09.654Z,14.40
2018-04-12T07:35:37.933Z,14.50
2018-04-12T07:38:06.184Z,14.50
2018-04-12T07:40:33.751Z,14.50
2018-04-12T07:43:01.252Z,14.40
2018-04-12T07:45:28.781Z,14.20
2018-04-12T07:47:56.281Z,14.00
2018-04-12T07:50:23.774Z,14.00
2018-04-12T07:52:51.294Z,14.10
2018-04-12T07:55:19.677Z,14.20
2018-04-12T07:57:47.248Z,14.20
2018-04-12T08:00:14.722Z,14.30
2018-04-12T08:02:42.242Z,14.10
2018-04-12T08:05:09.777Z,14.20
2018-04-12T08:07:38.056Z,14.20
2018-04-12T08:10:06.315Z,14.30
2018-04-12T08:12:34.594Z,14.40
2018-04-12T08:15:02.887Z,14.30
2018-04-12T08:17:30.401Z,14.30
2018-04-12T08:19:58.019Z,14.30
2018-04-12T08:22:25.513Z,14.40
2018-04-12T08:24:53.022Z,14.50
2018-04-12T08:27:20.533Z,14.50
2018-04-12T08:29:48.077Z,14.50
2018-04-12T08:32:15.607Z,14.70
2018-04-12T08:34:43.090Z,14.80
2018-04-12T08:37:10.592Z,14.90
2018-04-12T08:39:38.870Z,15.30
2018-04-12T08:42:07.187Z,15.40
2018-04-12T08:44:34.678Z,15.30
2018-04-12T08:47:02.249Z,15.70
2018-04-12T08:49:29.751Z,15.90
2018-04-12T08:51:57.263Z,15.90
2018-04-12T08:54:24.782Z,15.90
2018-04-12T08:56:52.365Z,16.00
2018-04-12T08:59:19.896Z,16.10
2018-04-12T09:01:47.460Z,16.20
2018-04-12T09:04:14.946Z,15.90
2018-04-12T09:06:42.494Z,15.70
2018-04-12T09:09:09.985Z,15.90
2018-04-12T09:11:38.241Z,15.80
2018-04-12T09:14:05.825Z,15.80
2018-04-12T09:16:34.137Z,15.80
2018-04-12T09:19:01.618Z,15.80
2018-04-12T09:21:29.125Z,15.90
2018-04-12T09:23:56.662Z,15.80
2018-04-12T09:26:24.929Z,15.80
2018-04-12T09:28:52.443Z,15.80
2018-04-12T09:31:19.967Z,15.90
2018-04-12T09:33:47.489Z,16.10
2018-04-12T09:36:14.960Z,16.20
2018-04-12T09:38:42.452Z,16.40
2018-04-12T09:41:09.939Z,16.40
2018-04-12T09:43:37.462Z,16.50
2018-04-12T09:46:05.019Z,16.40
2018-04-12T09:48:32.516Z,16.20
2018-04-12T09:51:00.063Z,16.10
2018-04-12T09:53:27.576Z,16.10
2018-04-12T09:55:55.850Z,16.10
2018-04-12T09:58:24.169Z,16.20
2018-04-12T10:00:55.500Z,16.20
2018-04-12T10:03:23.005Z,16.50
2018-04-12T10:05:56.252Z,16.80
2018-04-12T10:08:28.691Z,17.00
2018-04-12T10:10:56.970Z,17.00
2018-04-12T10:13:25.214Z,17.00
2018-04-12T10:15:52.747Z,17.00
2018-04-12T10:18:20.462Z,17.10
2018-04-12T10:20:48.727Z,17.10
2018-04-12T10:23:16.671Z,17.10
2018-04-12T10:25:44.657Z,16.90
2018-04-12T10:28:12.464Z,16.70
2018-04-12T10:30:39.997Z,16.80
2018-04-12T10:33:08.286Z,17.00
2018-04-12T10:35:36.578Z,17.10
2018-04-12T10:38:04.061Z,17.10
2018-04-12T10:40:31.565Z,17.20
2018-04-12T10:42:59.810Z,17.40
2018-04-12T10:45:27.336Z,17.40
2018-04-12T10:47:54.845Z,17.60
2018-04-12T10:50:22.417Z,17.90
2018-04-12T10:52:50.683Z,18.10
2018-04-12T10:55:18.961Z,18.30
2018-04-12T10:57:47.255Z,18.20
2018-04-12T11:00:15.527Z,18.30
2018-04-12T11:02:43.787Z,18.10
2018-04-12T11:05:12.077Z,18.20
2018-04-12T11:07:39.679Z,18.10
2018-04-12T11:10:07.168Z,18.20
2018-04-12T11:12:34.660Z,18.40
2018-04-12T11:15:02.182Z,18.40
2018-04-12T11:17:29.683Z,18.50
2018-04-12T11:19:57.203Z,18.60
2018-04-12T11:22:24.709Z,18.60
2018-04-12T11:24:52.212Z,18.60
2018-04-12T11:27:19.700Z,18.70
2018-04-12T11:29:47.217Z,18.70
2018-04-12T11:32:14.956Z,18.90
2018-04-12T11:34:42.504Z,18.70
2018-04-12T11:37:10.020Z,18.70
2018-04-12T11:39:38.295Z,19.10
2018-04-12T11:42:06.550Z,19.00
2018-04-12T11:44:34.055Z,19.00
2018-04-12T11:47:01.579Z,19.20
2018-04-12T11:49:29.062Z,19.40
2018-04-12T11:51:57.288Z,19.30
2018-04-12T11:54:24.761Z,19.10
2018-04-12T11:56:52.238Z,19.00
2018-04-12T11:59:20.537Z,18.90
2018-04-12T12:01:48.261Z,18.90
2018-04-12T12:04:15.767Z,18.70
2018-04-12T12:06:43.293Z,19.10
2018-04-12T12:09:11.582Z,19.50
2018-04-12T12:11:39.116Z,19.50
2018-04-12T12:14:07.434Z,19.70
2018-04-12T12:16:34.938Z,19.70
2018-04-12T12:19:02.426Z,19.70
2018-04-12T12:21:29.941Z,19.90
2018-04-12T12:23:57.457Z,19.90
2018-04-12T12:26:25.700Z,19.60
2018-04-12T12:28:54.162Z,19.80
2018-04-12T12:31:21.644Z,19.70
2018-04-12T12:33:49.893Z,19.90
2018-04-12T12:36:17.435Z,19.90
2018-04-12T12:38:44.941Z,19.70
2018-04-12T12:41:13.192Z,19.50
2018-04-12T12:43:40.703Z,19.50
2018-04-12T12:46:08.248Z,19.70
2018-04-12T12:48:35.894Z,19.50
2018-04-12T12:51:03.455Z,19.50
2018-04-12T12:53:30.988Z,19.60
2018-04-12T12:55:58.544Z,19.70
2018-04-12T12:58:25.979Z,19.60
2018-04-12T13:00:53.503Z,19.70
2018-04-12T13:03:21.022Z,20.00
2018-04-12T13:05:48.520Z,20.30
2018-04-12T13:08:16.051Z,20.60
2018-04-12T13:10:44.335Z,20.70
2018-04-12T13:13:12.622Z,20.90
2018-04-12T13:15:40.123Z,20.90
2018-04-12T13:18:07.607Z,21.20
2018-04-12T13:20:35.906Z,21.20
2018-04-12T13:23:03.390Z,21.20
2018-04-12T13:25:30.893Z,21.00
2018-04-12T13:27:58.376Z,20.70
2018-04-12T13:30:25.881Z,20.40
2018-04-12T13:32:53.394Z,20.40
2018-04-12T13:35:20.980Z,20.40
2018-04-12T13:37:48.486Z,20.40
2018-04-12T13:40:16.786Z,20.50
2018-04-12T13:42:44.388Z,20.50
2018-04-12T13:45:11.918Z,20.70
2018-04-12T13:47:39.419Z,20.60
2018-04-12T13:50:06.930Z,20.50
2018-04-12T13:52:45.426Z,20.50
2018-04-12T13:55:13.708Z,20.50
2018-04-12T13:57:41.235Z,20.50
2018-04-12T14:00:08.783Z,20.40
2018-04-12T14:02:36.273Z,20.70
2018-04-12T14:05:04.534Z,20.60
2018-04-12T14:07:32.820Z,20.70
2018-04-12T14:10:01.093Z,20.70
2018-04-12T14:12:29.357Z,20.70
2018-04-12T14:14:56.884Z,20.70
2018-04-12T14:17:24.400Z,20.60
2018-04-12T14:19:51.979Z,20.90
2018-04-12T14:22:19.505Z,20.80
2018-04-12T14:24:47.751Z,20.60
2018-04-12T14:27:15.250Z,20.60
2018-04-12T14:29:42.797Z,20.60
2018-04-12T14:32:11.046Z,20.80
2018-04-12T14:34:38.537Z,20.70
2018-04-12T14:37:06.051Z,20.60
2018-04-12T14:39:33.555Z,20.70
2018-04-12T14:42:01.062Z,20.70
2018-04-12T14:44:28.594Z,20.60
2018-04-12T14:46:56.121Z,20.60
2018-04-12T14:49:23.621Z,20.80
2018-04-12T14:51:51.111Z,21.00
2018-04-12T14:54:19.227Z,21.50
2018-04-12T14:56:46.117Z,22.40
2018-04-12T14:59:13.610Z,23.00
2018-04-12T15:01:41.112Z,23.90
2018-04-12T15:04:08.655Z,24.90
2018-04-12T15:06:36.149Z,25.40
2018-04-12T15:09:03.668Z,26.40
2018-04-12T15:11:31.153Z,27.30
2018-04-12T15:13:58.651Z,28.20
2018-04-12T15:16:26.172Z,28.90
2018-04-12T15:18:53.698Z,29.40
2018-04-12T15:21:21.269Z,29.80
2018-04-12T15:23:48.751Z,30.20
2018-04-12T15:26:16.275Z,29.90
2018-04-12T15:28:43.805Z,29.10
2018-04-12T15:31:11.301Z,27.70
2018-04-12T15:33:38.804Z,27.00
2018-04-12T15:36:07.084Z,25.10
2018-04-12T15:38:35.539Z,24.20
2018-04-12T15:41:03.031Z,24.20
2018-04-12T15:43:30.505Z,23.70
2018-04-12T15:45:58.205Z,23.20
2018-04-12T15:48:25.673Z,22.80
2018-04-12T15:50:53.272Z,22.40
2018-04-12T15:53:20.764Z,21.90
2018-04-12T15:55:48.299Z,21.30
2018-04-12T15:58:15.800Z,20.80
2018-04-12T16:00:43.339Z,20.60
2018-04-12T16:03:10.831Z,20.30
2018-04-12T16:05:39.073Z,19.80
2018-04-12T16:08:06.598Z,19.80
2018-04-12T16:10:34.937Z,19.50
2018-04-12T16:13:03.187Z,19.20
2018-04-12T16:15:31.458Z,18.90
2018-04-12T16:17:58.996Z,18.90
2018-04-12T16:20:26.490Z,18.80
2018-04-12T16:22:53.994Z,18.60
2018-04-12T16:25:21.519Z,18.40
2018-04-12T16:27:49.776Z,18.10
2018-04-12T16:30:17.340Z,18.10
2018-04-12T16:32:45.005Z,17.80
2018-04-12T16:35:12.518Z,17.70
2018-04-12T16:37:40.095Z,17.60
2018-04-12T16:40:07.568Z,17.60
2018-04-12T16:42:35.122Z,17.40
2018-04-12T16:45:02.698Z,17.30
2018-04-12T16:47:30.181Z,17.20
2018-04-12T16:49:57.656Z,17.10
2018-04-12T16:52:25.159Z,16.80
2018-04-12T16:54:52.644Z,16.80
2018-04-12T16:57:20.924Z,16.50
2018-04-12T16:59:49.179Z,16.30
2018-04-12T17:02:16.654Z,16.30
2018-04-12T17:04:44.943Z,16.20
2018-04-12T17:07:12.418Z,16.20
2018-04-12T17:09:40.665Z,16.00
2018-04-12T17:12:08.956Z,16.00
2018-04-12T17:14:36.442Z,16.00
2018-04-12T17:17:03.929Z,15.90
2018-04-12T17:19:31.481Z,15.80
2018-04-12T17:21:59.776Z,15.50
2018-04-12T17:24:28.037Z,15.50
2018-04-12T17:26:55.586Z,15.50
2018-04-12T17:29:23.332Z,15.40
2018-04-12T17:31:51.726Z,15.30
2018-04-12T17:34:19.310Z,15.20
2018-04-12T17:36:47.549Z,14.90
2018-04-12T17:39:15.074Z,14.90
2018-04-12T17:41:42.546Z,14.90
2018-04-12T17:44:10.049Z,14.90
2018-04-12T17:46:37.569Z,14.90
2018-04-12T17:49:05.040Z,14.80
2018-04-12T17:51:32.541Z,14.60
2018-04-12T17:54:00.102Z,14.50
2018-04-12T17:56:28.376Z,14.30
2018-04-12T17:58:56.653Z,14.30
2018-04-12T18:01:24.893Z,14.30
2018-04-12T18:03:53.198Z,14.30
2018-04-12T18:06:21.485Z,14.20
2018-04-12T18:08:48.988Z,14.10
2018-04-12T18:11:16.487Z,14.10
2018-04-12T18:13:44.738Z,13.90
2018-04-12T18:16:12.278Z,13.90
2018-04-12T18:18:39.851Z,13.80
2018-04-12T18:21:07.323Z,13.80
2018-04-12T18:23:34.825Z,13.70
2018-04-12T18:26:02.355Z,13.60
2018-04-12T18:28:30.660Z,13.50
2018-04-12T18:30:58.921Z,13.40
2018-04-12T18:33:26.455Z,13.40
2018-04-12T18:35:54.697Z,13.20
2018-04-12T18:38:22.247Z,13.20
2018-04-12T18:40:49.732Z,13.10
2018-04-12T18:43:17.248Z,13.00
2018-04-12T18:45:44.756Z,13.10
2018-04-12T18:48:12.253Z,13.00
2018-04-12T18:50:39.768Z,12.90
2018-04-12T18:53:08.028Z,12.70
2018-04-12T18:55:35.579Z,12.70
2018-04-12T18:58:03.116Z,12.80
2018-04-12T19:00:30.623Z,12.70
2018-04-12T19:02:58.875Z,12.60
2018-04-12T19:05:26.565Z,12.50
2018-04-12T19:07:54.089Z,12.40
2018-04-12T19:10:21.618Z,12.40
2018-04-12T19:12:49.149Z,12.30
2018-04-12T19:15:16.781Z,12.30
2018-04-12T19:17:44.302Z,12.30
2018-04-12T19:20:11.832Z,12.30
2018-04-12T19:22:39.362Z,12.10
2018-04-12T19:25:06.887Z,12.10
2018-04-12T19:27:34.456Z,12.10
2018-04-12T19:30:01.987Z,12.20
2018-04-12T19:32:29.574Z,12.10
2018-04-12T19:34:57.063Z,11.90
2018-04-12T19:37:25.350Z,11.70
2018-04-12T19:39:52.847Z,11.70
2018-04-12T19:42:21.203Z,11.70
2018-04-12T19:44:48.692Z,11.70
2018-04-12T19:47:16.183Z,11.80
2018-04-12T19:49:44.483Z,11.60
2018-04-12T19:52:11.982Z,11.60
2018-04-12T19:54:39.463Z,11.60
2018-04-12T19:57:06.968Z,11.50
2018-04-12T19:59:34.462Z,11.40
2018-04-12T20:02:01.963Z,11.40
2018-04-12T20:04:29.485Z,11.50
2018-04-12T20:06:56.975Z,11.40
2018-04-12T20:09:24.502Z,11.40
2018-04-12T20:11:52.001Z,11.40
2018-04-12T20:14:19.527Z,11.30
2018-04-12T20:16:47.793Z,11.40
2018-04-12T20:19:15.307Z,11.40
2018-04-12T20:21:42.810Z,11.30
2018-04-12T20:24:10.295Z,11.30
2018-04-12T20:26:37.827Z,11.30
2018-04-12T20:29:05.317Z,11.30
2018-04-12T20:31:32.793Z,11.20
2018-04-12T20:34:00.349Z,11.20
2018-04-12T20:36:28.600Z,11.30
2018-04-12T20:38:56.106Z,11.30
2018-04-12T20:41:23.594Z,11.20
2018-04-12T20:43:51.114Z,11.20
2018-04-12T20:46:18.613Z,11.10
2018-04-12T20:48:46.899Z,11.00
2018-04-12T20:51:15.213Z,11.00
2018-04-12T20:53:42.695Z,11.00
2018-04-12T20:56:10.277Z,11.00
2018-04-12T20:58:37.773Z,10.90
2018-04-12T21:01:05.246Z,10.90
2018-04-12T21:03:32.778Z,10.80
2018-04-12T21:06:00.301Z,10.80
2018-04-12T21:08:28.634Z,10.80
2018-04-12T21:10:56.134Z,10.80
2018-04-12T21:13:23.650Z,10.80
2018-04-12T21:15:51.277Z,10.80
2018-04-12T21:18:18.820Z,10.90
2018-04-12T21:20:47.102Z,10.90
2018-04-12T21:23:14.593Z,10.90
2018-04-12T21:25:42.100Z,10.90
2018-04-12T21:28:09.723Z,10.80
2018-04-12T21:30:38.854Z,10.70
2018-04-12T21:33:07.137Z,10.70
2018-04-12T21:35:34.688Z,10.70
2018-04-12T21:38:02.278Z,10.70
2018-04-12T21:40:29.903Z,10.80
2018-04-12T21:42:57.431Z,10.80
2018-04-12T21:45:24.940Z,10.70
2018-04-12T21:47:53.258Z,10.70
2018-04-12T21:50:20.812Z,10.70
2018-04-12T21:52:48.337Z,10.70
2018-04-12T21:55:15.872Z,10.60
2018-04-12T21:57:43.391Z,10.60
2018-04-12T22:00:10.879Z,10.50
2018-04-12T22:02:38.502Z,10.50
2018-04-12T22:05:06.030Z,10.60
2018-04-12T22:07:34.289Z,10.60
2018-04-12T22:10:01.806Z,10.60
2018-04-12T22:12:29.445Z,10.60
2018-04-12T22:14:56.990Z,10.70
2018-04-12T22:17:24.562Z,10.60
2018-04-12T22:19:52.136Z,10.60
2018-04-12T22:22:19.737Z,10.60
2018-04-12T22:24:47.265Z,10.60
2018-04-12T22:27:14.754Z,10.50
2018-04-12T22:29:42.293Z,10.50
2018-04-12T22:32:09.808Z,10.50
2018-04-12T22:34:37.290Z,10.70
2018-04-12T22:37:04.765Z,10.60
2018-04-12T22:39:32.274Z,10.60
2018-04-12T22:41:59.783Z,10.60
2018-04-12T22:44:27.354Z,10.70
2018-04-12T22:46:54.839Z,10.70
2018-04-12T22:49:23.129Z,10.60
2018-04-12T22:51:50.641Z,10.60
2018-04-12T22:54:18.148Z,10.60
2018-04-12T22:56:45.641Z,10.50
2018-04-12T22:59:13.146Z,10.60
2018-04-12T23:01:41.396Z,10.50
2018-04-12T23:04:08.900Z,10.50
2018-04-12T23:06:36.382Z,10.50
2018-04-12T23:09:03.882Z,10.40
2018-04-12T23:11:32.139Z,10.50
2018-04-12T23:13:59.712Z,10.50
2018-04-12T23:16:27.969Z,10.50
2018-04-12T23:18:55.451Z,10.50
2018-04-12T23:21:23.719Z,10.30
2018-04-12T23:23:51.199Z,10.30
2018-04-12T23:26:19.208Z,10.40
2018-04-12T23:28:46.705Z,10.40
2018-04-12T23:31:14.956Z,10.50
2018-04-12T23:33:42.476Z,10.50
2018-04-12T23:36:10.204Z,10.50
2018-04-12T23:38:38.455Z,10.50
2018-04-12T23:41:05.970Z,10.50
2018-04-12T23:43:33.484Z,10.50
2018-04-12T23:46:01.008Z,10.60
2018-04-12T23:48:28.615Z,10.60
2018-04-12T23:50:56.879Z,10.60
2018-04-12T23:53:24.389Z,10.60
2018-04-12T23:55:51.946Z,10.60
2018-04-12T23:58:19.434Z,10.60
